logo
Search for airport 
image banner adimage banner adimage banner ad
image banner ad

LKMI - Mikulovice

Located in Jesenik, Czech Republic

ICAO - LKMI, IATA -

Data provided by Airmate  

General information

Coordinates: N50°18'6" E17°17'51"
Elevation is 1375 feet MSL.
 
View others Airports in Olomouc Region

Operational data

Special qualification required
Current time UTC:
Current local time:
Weather at : - ( 0 km )
METAR: YGLA 200745Z AUTO 18007KT 5000 -RA SCT013 SCT026 BKN037 20/19 Q1015
View NOTAMs / SUP AIP / TFR affecting this airport [VIEW]
Communications frequencies: [VIEW]

Runways:

RWY identifierQFULength (ft)Width (ft)SurfaceLDA (ft)
053018135GRASS
233018135GRASS

Airport contact information

Address: Jesenik Czech Republic

Satellite view of LKMI